Tinsdal — V2AJ2 — position and weather

sailwx.info

Track history (hours):
 
Tides and Currents Weather Stations Pressure Air Temp Water Temp Dewpoint Dewpoint Depression Visibility Wind Speed Wind Dir Waves Ship Positions

Tinsdal

Last reported at 2015-Sep-05 13:12 UTC. Time now 2015-Sep-05 14:21 UTC.
Position N 53°16' W 009°03'.

Length 90 m; draft 5.6 m.

Type: Cargo ship. MMSI: 305573000.

Date/timePositionNaut miles runAvg speedWind from/ knotsBaromVisibWave heightAir tempDewpointWater temp
2015-Sep-05 13:12N 53°16' W 009°03'0 0.0
2015-Sep-05 12:06N 53°16' W 009°03'0 0.0
2015-Sep-05 10:33N 53°16' W 009°03'0 0.0
2015-Sep-05 09:15N 53°16' W 009°03'0 0.0
2015-Sep-05 07:30N 53°16' W 009°03'0 0.0
2015-Sep-05 06:30N 53°16' W 009°03'0 0.0
2015-Sep-05 05:30N 53°16' W 009°03'0 0.0
2015-Sep-05 04:30N 53°16' W 009°03'0 0.0
2015-Sep-05 03:30N 53°16' W 009°03'0 0.0
2015-Sep-05 02:30N 53°16' W 009°03'0 0.0
2015-Sep-05 01:33N 53°16' W 009°03'0 0.0
2015-Sep-05 00:24N 53°16' W 009°03'0 0.0
2015-Sep-04 22:12N 53°16' W 009°03'0 0.0
2015-Sep-04 21:27N 53°16' W 009°03'0 0.0
2015-Sep-04 18:16N 53°16' W 009°03'0 0.0
2015-Sep-04 11:25N 53°16' W 009°03'0 0.0
2015-Sep-04 08:13N 53°16' W 009°03'0 0.4
2015-Sep-04 07:32N 53°16' W 009°03'3 3.1
2015-Sep-04 06:32N 53°14' W 009°06'5 4.5
2015-Sep-04 05:26N 53°11' W 009°13'4 4.9
2015-Sep-04 04:33N 53°09' W 009°19'7 7.5
2015-Sep-04 03:33N 53°03' W 009°27'7 7.2
2015-Sep-04 02:33N 52°57' W 009°35'9 8.8
2015-Sep-04 01:33N 52°51' W 009°45'  
2015-Aug-28 03:29N 39°14' W 009°50'8 9.0
2015-Aug-28 02:33N 39°06' W 009°50'9 9.2
2015-Aug-28 01:33N 38°57' W 009°50'9 9.0
2015-Aug-28 00:33N 38°48' W 009°50'9 8.8
2015-Aug-27 23:33N 38°39' W 009°49'8 8.2
2015-Aug-27 22:33N 38°34' W 009°41'8 8.4
2015-Aug-27 21:34N 38°30' W 009°32'8 8.1
2015-Aug-27 20:34N 38°25' W 009°23'9 8.7
2015-Aug-27 19:34N 38°20' W 009°14'9 8.8
2015-Aug-27 18:33N 38°24' W 009°04'9 9.3
2015-Aug-27 17:33N 38°30' W 008°54'2 1.6
2015-Aug-27 16:26N 38°31' W 008°52'0 0.0
2015-Aug-27 15:17N 38°31' W 008°52'0 0.0
2015-Aug-27 14:20N 38°31' W 008°52'0 0.0
2015-Aug-27 08:32N 38°31' W 008°52'0 0.0
2015-Aug-27 07:26N 38°31' W 008°52'0 0.0
2015-Aug-27 06:26N 38°31' W 008°52'0 0.0
2015-Aug-27 05:26N 38°31' W 008°52'0 0.0
2015-Aug-27 04:14N 38°31' W 008°52'0 0.0
2015-Aug-27 03:32N 38°31' W 008°52'0 0.0
2015-Aug-27 02:29N 38°31' W 008°52'0 0.0
2015-Aug-27 01:29N 38°31' W 008°52'0 0.0
2015-Aug-27 00:32N 38°31' W 008°52'0 0.0
2015-Aug-26 22:14N 38°31' W 008°52'0 0.0
2015-Aug-26 21:32N 38°31' W 008°52'0 0.0
2015-Aug-26 20:32N 38°31' W 008°52'1 1.0
2015-Aug-26 19:29N 38°31' W 008°54'0 0.0
2015-Aug-26 18:32N 38°31' W 008°54'0 0.0
2015-Aug-26 17:33N 38°31' W 008°54'0 0.0
2015-Aug-26 16:32N 38°31' W 008°54'0 0.1
2015-Aug-26 15:33N 38°31' W 008°54'0 0.1
2015-Aug-26 14:33N 38°31' W 008°54'6 6.3
2015-Aug-26 13:33N 38°26' W 008°60'  
Track history (hours):
 
Tides and Currents Weather Stations Pressure Air Temp Water Temp Dewpoint Dewpoint Depression Visibility Wind Speed Wind Dir Waves Ship Positions

Tinsdal

Last reported at 2015-Sep-05 13:12 UTC. Time now 2015-Sep-05 14:21 UTC.
Position N 53°16' W 009°03'.

Length 90 m; draft 5.6 m.

Type: Cargo ship. MMSI: 305573000.

Date/timePositionNaut miles runAvg speedWind from/ knotsBaromVisibWave heightAir tempDewpointWater temp
2015-Sep-05 13:12N 53°16' W 009°03'0 0.0
2015-Sep-05 12:06N 53°16' W 009°03'0 0.0
2015-Sep-05 10:33N 53°16' W 009°03'0 0.0
2015-Sep-05 09:15N 53°16' W 009°03'0 0.0
2015-Sep-05 07:30N 53°16' W 009°03'0 0.0
2015-Sep-05 06:30N 53°16' W 009°03'0 0.0
2015-Sep-05 05:30N 53°16' W 009°03'0 0.0
2015-Sep-05 04:30N 53°16' W 009°03'0 0.0
2015-Sep-05 03:30N 53°16' W 009°03'0 0.0
2015-Sep-05 02:30N 53°16' W 009°03'0 0.0
2015-Sep-05 01:33N 53°16' W 009°03'0 0.0
2015-Sep-05 00:24N 53°16' W 009°03'0 0.0
2015-Sep-04 22:12N 53°16' W 009°03'0 0.0
2015-Sep-04 21:27N 53°16' W 009°03'0 0.0
2015-Sep-04 18:16N 53°16' W 009°03'0 0.0
2015-Sep-04 11:25N 53°16' W 009°03'0 0.0
2015-Sep-04 08:13N 53°16' W 009°03'0 0.4
2015-Sep-04 07:32N 53°16' W 009°03'3 3.1
2015-Sep-04 06:32N 53°14' W 009°06'5 4.5
2015-Sep-04 05:26N 53°11' W 009°13'4 4.9
2015-Sep-04 04:33N 53°09' W 009°19'7 7.5
2015-Sep-04 03:33N 53°03' W 009°27'7 7.2
2015-Sep-04 02:33N 52°57' W 009°35'9 8.8
2015-Sep-04 01:33N 52°51' W 009°45'  
2015-Aug-28 03:29N 39°14' W 009°50'8 9.0
2015-Aug-28 02:33N 39°06' W 009°50'9 9.2
2015-Aug-28 01:33N 38°57' W 009°50'9 9.0
2015-Aug-28 00:33N 38°48' W 009°50'9 8.8
2015-Aug-27 23:33N 38°39' W 009°49'8 8.2
2015-Aug-27 22:33N 38°34' W 009°41'8 8.4
2015-Aug-27 21:34N 38°30' W 009°32'8 8.1
2015-Aug-27 20:34N 38°25' W 009°23'9 8.7
2015-Aug-27 19:34N 38°20' W 009°14'9 8.8
2015-Aug-27 18:33N 38°24' W 009°04'9 9.3
2015-Aug-27 17:33N 38°30' W 008°54'2 1.6
2015-Aug-27 16:26N 38°31' W 008°52'0 0.0
2015-Aug-27 15:17N 38°31' W 008°52'0 0.0
2015-Aug-27 14:20N 38°31' W 008°52'0 0.0
2015-Aug-27 08:32N 38°31' W 008°52'0 0.0
2015-Aug-27 07:26N 38°31' W 008°52'0 0.0
2015-Aug-27 06:26N 38°31' W 008°52'0 0.0
2015-Aug-27 05:26N 38°31' W 008°52'0 0.0
2015-Aug-27 04:14N 38°31' W 008°52'0 0.0
2015-Aug-27 03:32N 38°31' W 008°52'0 0.0
2015-Aug-27 02:29N 38°31' W 008°52'0 0.0
2015-Aug-27 01:29N 38°31' W 008°52'0 0.0
2015-Aug-27 00:32N 38°31' W 008°52'0 0.0
2015-Aug-26 22:14N 38°31' W 008°52'0 0.0
2015-Aug-26 21:32N 38°31' W 008°52'0 0.0
2015-Aug-26 20:32N 38°31' W 008°52'1 1.0
2015-Aug-26 19:29N 38°31' W 008°54'0 0.0
2015-Aug-26 18:32N 38°31' W 008°54'0 0.0
2015-Aug-26 17:33N 38°31' W 008°54'0 0.0
2015-Aug-26 16:32N 38°31' W 008°54'0 0.1
2015-Aug-26 15:33N 38°31' W 008°54'0 0.1
2015-Aug-26 14:33N 38°31' W 008°54'6 6.3
2015-Aug-26 13:33N 38°26' W 008°60'  

Dump ship's entire track history